Hampton, Kentucky
Current Conditions -  °F | °C
As of 12:35 PM on Thursday 27 Nov 2014 (Local Time) from K5M9 Reporting Station
Overcast Overcast  
Wind Chill: 23°   Ceiling: 2200
Heat Index: 30°   Visibility: 10mi
Dew Point: 22°   Wind: 7mph
Humidity: 72%   Direction: 320°NW
Pressure: 30.45"   Gusts: NA
Location:  37.28°N, 88.37°W
Report Text: K5M9 271835Z AUTO 32006KT 290V350 10SM OVC022 M01/M05 A3045 RMK AO2 T10101054
Loading
Personal Weather Stations






























Interactive Weather Map New forecast layout! Learn more

10-Day Weather Forecast

Advertisements
Track Severe Weather on mobile